createdAt,value
2022-10-12T00:03:13.220Z,23.20
2022-10-12T00:08:15.506Z,23.80
2022-10-12T00:13:17.491Z,23.30
2022-10-12T00:18:19.553Z,23.40
2022-10-12T00:23:21.591Z,23.30
2022-10-12T00:28:23.640Z,24.10
2022-10-12T00:33:28.253Z,23.50
2022-10-12T00:38:30.259Z,23.90
2022-10-12T00:43:39.133Z,23.80
2022-10-12T00:48:41.905Z,23.90
2022-10-12T00:53:47.967Z,24.50
2022-10-12T00:58:51.309Z,23.90
2022-10-12T01:03:53.387Z,24.60
2022-10-12T01:08:56.432Z,24.20
2022-10-12T01:13:58.669Z,24.30
2022-10-12T01:19:34.061Z,24.90
2022-10-12T01:24:38.751Z,24.20
2022-10-12T01:30:01.859Z,24.50
2022-10-12T01:35:17.256Z,24.70
2022-10-12T01:40:39.462Z,24.80
2022-10-12T01:45:41.567Z,25.70
2022-10-12T01:50:52.559Z,25.90
2022-10-12T01:56:11.115Z,26.40
2022-10-12T02:01:43.206Z,26.10
2022-10-12T02:06:54.080Z,25.80
2022-10-12T02:12:00.206Z,25.80
2022-10-12T02:17:07.615Z,25.70
2022-10-12T02:22:11.535Z,26.00
2022-10-12T02:27:15.608Z,26.60
2022-10-12T02:32:35.570Z,26.10
2022-10-12T02:37:48.852Z,26.10
2022-10-12T02:43:10.806Z,25.90
2022-10-12T02:48:18.610Z,26.00
2022-10-12T02:53:22.114Z,26.50
2022-10-12T02:58:24.122Z,25.80
2022-10-12T03:03:26.178Z,25.70
2022-10-12T03:08:28.180Z,25.70
2022-10-12T03:13:30.253Z,26.10
2022-10-12T03:18:32.869Z,25.50
2022-10-12T03:23:34.994Z,25.60
2022-10-12T03:28:37.046Z,25.60
2022-10-12T03:33:39.189Z,25.70
2022-10-12T03:38:41.198Z,25.70
2022-10-12T03:43:43.190Z,26.50
2022-10-12T03:48:45.193Z,26.60
2022-10-12T03:53:47.176Z,26.10
2022-10-12T03:58:49.240Z,26.00
2022-10-12T04:03:51.359Z,26.00
2022-10-12T04:08:53.376Z,25.90
2022-10-12T04:13:55.396Z,25.80
2022-10-12T04:23:59.854Z,25.60
2022-10-12T04:29:01.896Z,25.70
2022-10-12T04:34:03.982Z,25.70
2022-10-12T04:39:06.063Z,25.70
2022-10-12T04:44:08.256Z,25.60
2022-10-12T04:49:10.352Z,25.50
2022-10-12T04:54:12.548Z,25.50
2022-10-12T04:59:14.769Z,25.50
2022-10-12T05:04:16.759Z,25.50
2022-10-12T05:09:18.873Z,25.50
2022-10-12T05:14:20.941Z,25.50
2022-10-12T05:19:22.954Z,25.50
2022-10-12T05:24:25.074Z,25.40
2022-10-12T05:29:27.104Z,25.40
2022-10-12T05:34:29.122Z,25.20
2022-10-12T05:39:31.132Z,25.20
2022-10-12T05:44:33.331Z,25.20
2022-10-12T05:49:35.737Z,25.10
2022-10-12T06:04:43.478Z,25.00
2022-10-12T06:09:47.533Z,25.00
2022-10-12T06:14:49.806Z,25.10
2022-10-12T06:19:51.805Z,25.00
2022-10-12T06:24:53.852Z,25.00
2022-10-12T06:29:56.380Z,25.00
2022-10-12T06:34:58.604Z,24.90
2022-10-12T06:40:00.678Z,25.50
2022-10-12T06:45:03.823Z,24.80
2022-10-12T06:50:06.808Z,25.50
2022-10-12T06:55:09.131Z,24.90
2022-10-12T07:00:12.311Z,24.80
2022-10-12T07:05:15.249Z,24.80
2022-10-12T07:10:17.339Z,24.80
2022-10-12T07:15:20.043Z,25.30
2022-10-12T07:25:24.542Z,24.60
2022-10-12T07:35:29.065Z,24.50
2022-10-12T07:40:31.687Z,24.60
2022-10-12T07:45:33.828Z,25.20
2022-10-12T07:50:36.125Z,24.30
2022-10-12T07:55:38.133Z,24.30
2022-10-12T08:00:40.238Z,24.20
2022-10-12T08:10:44.648Z,24.20
2022-10-12T08:15:50.620Z,24.40
2022-10-12T08:20:52.842Z,24.40
2022-10-12T08:25:58.160Z,24.00
2022-10-12T08:31:00.589Z,23.70
2022-10-12T08:36:07.629Z,23.50
2022-10-12T08:41:29.701Z,23.50
2022-10-12T08:46:32.239Z,23.50
2022-10-12T08:51:45.868Z,23.40
2022-10-12T08:56:48.480Z,23.40
2022-10-12T09:02:23.247Z,23.40
2022-10-12T09:07:31.297Z,23.40
2022-10-12T09:13:11.682Z,23.60
2022-10-12T09:18:31.838Z,23.20
2022-10-12T09:23:39.445Z,23.10
2022-10-12T09:28:50.872Z,23.00
2022-10-12T09:34:01.424Z,23.20
2022-10-12T09:39:28.961Z,23.10
2022-10-12T09:44:44.759Z,23.40
2022-10-12T09:49:51.793Z,23.10
2022-10-12T09:55:05.218Z,22.70
2022-10-12T10:00:30.458Z,22.40
2022-10-12T10:05:34.842Z,22.40
2022-10-12T10:10:36.935Z,22.30
2022-10-12T10:15:39.287Z,22.40
2022-10-12T10:20:54.377Z,22.90
2022-10-12T10:26:09.905Z,22.50
2022-10-12T10:31:21.181Z,22.00
2022-10-12T10:36:26.471Z,22.00
2022-10-12T10:41:42.669Z,22.50
2022-10-12T10:46:46.368Z,21.50
2022-10-12T10:51:54.824Z,21.60
2022-10-12T10:57:08.852Z,21.40
2022-10-12T11:02:23.794Z,21.00
2022-10-12T11:07:37.812Z,20.80
2022-10-12T11:12:46.223Z,20.70
2022-10-12T11:17:53.525Z,20.60
2022-10-12T11:23:02.821Z,20.90
2022-10-12T11:28:08.009Z,21.00
2022-10-12T11:33:19.388Z,20.60
2022-10-12T11:38:24.916Z,20.60
2022-10-12T11:43:33.687Z,20.10
2022-10-12T11:48:54.632Z,19.60
2022-10-12T11:54:35.651Z,19.80
2022-10-12T12:00:02.898Z,19.70
2022-10-12T12:05:16.907Z,18.80
2022-10-12T12:10:25.457Z,18.50
2022-10-12T12:15:27.572Z,18.50
2022-10-12T12:20:44.655Z,18.60
2022-10-12T12:25:46.826Z,17.90
2022-10-12T12:31:02.141Z,17.70
2022-10-12T12:36:08.669Z,17.50
2022-10-12T12:41:17.002Z,17.50
2022-10-12T12:46:19.825Z,17.30
2022-10-12T12:51:37.639Z,16.40
2022-10-12T12:56:45.412Z,16.50
2022-10-12T13:01:55.128Z,16.20
2022-10-12T13:07:24.285Z,15.40
2022-10-12T13:17:55.355Z,14.50
2022-10-12T13:23:02.733Z,14.80
2022-10-12T13:33:10.099Z,14.20
2022-10-12T13:38:15.316Z,13.80
2022-10-12T13:43:31.791Z,13.30
2022-10-12T13:48:58.154Z,11.80
2022-10-12T13:53:57.818Z,11.20
2022-10-12T13:59:05.455Z,11.00
2022-10-12T14:04:11.400Z,11.30
2022-10-12T14:09:21.506Z,11.70
2022-10-12T14:14:36.295Z,11.20
2022-10-12T14:19:47.882Z,10.20
2022-10-12T14:24:53.002Z,10.10
2022-10-12T14:30:03.761Z,10.30
2022-10-12T14:35:27.760Z,10.10
2022-10-12T14:40:39.366Z,10.60
2022-10-12T14:45:41.541Z,10.60
2022-10-12T14:50:44.367Z,11.10
2022-10-12T14:55:48.535Z,12.40
2022-10-12T15:00:53.065Z,12.10
2022-10-12T15:05:56.165Z,12.00
2022-10-12T15:10:58.332Z,12.60
2022-10-12T15:16:01.767Z,13.10
2022-10-12T15:21:04.662Z,13.00
2022-10-12T15:26:06.901Z,13.80
2022-10-12T15:31:18.867Z,13.90
2022-10-12T15:36:21.338Z,14.40
2022-10-12T15:41:25.704Z,15.60
2022-10-12T15:46:27.774Z,15.90
2022-10-12T15:51:30.009Z,16.60
2022-10-12T15:56:32.121Z,16.70
2022-10-12T16:01:35.715Z,16.60
2022-10-12T16:06:37.868Z,16.80
2022-10-12T16:11:39.940Z,17.50
2022-10-12T16:16:42.010Z,17.40
2022-10-12T16:26:47.299Z,17.90
2022-10-12T16:31:49.428Z,18.40
2022-10-12T16:36:52.874Z,19.30
2022-10-12T16:41:55.007Z,19.00
2022-10-12T16:46:57.216Z,18.90
2022-10-12T16:51:59.288Z,20.20
2022-10-12T17:02:04.060Z,19.90
2022-10-12T17:07:06.437Z,20.60
2022-10-12T17:12:08.559Z,20.00
2022-10-12T17:17:10.637Z,20.30
2022-10-12T17:22:14.194Z,21.70
2022-10-12T17:27:16.862Z,21.80
2022-10-12T17:32:19.459Z,21.70
2022-10-12T17:37:22.031Z,21.50
2022-10-12T17:42:24.729Z,22.60
2022-10-12T17:47:26.827Z,21.80
2022-10-12T17:52:28.866Z,21.80
2022-10-12T17:57:30.884Z,23.00
2022-10-12T18:02:32.915Z,23.20
2022-10-12T18:07:35.954Z,23.30
2022-10-12T18:12:38.090Z,23.70
2022-10-12T18:17:40.217Z,23.30
2022-10-12T18:22:42.264Z,24.30
2022-10-12T18:27:44.270Z,23.50
2022-10-12T18:32:46.604Z,24.50
2022-10-12T18:37:48.597Z,24.60
2022-10-12T18:42:50.651Z,24.30
2022-10-12T18:47:52.836Z,24.90
2022-10-12T18:52:55.079Z,24.60
2022-10-12T18:57:57.096Z,25.10
2022-10-12T19:02:59.184Z,24.60
2022-10-12T19:08:01.199Z,24.80
2022-10-12T19:13:03.267Z,24.70
2022-10-12T19:18:05.817Z,24.90
2022-10-12T19:23:07.900Z,24.90
2022-10-12T19:28:09.942Z,25.10
2022-10-12T19:33:11.910Z,25.00
2022-10-12T19:38:13.987Z,25.90
2022-10-12T19:48:18.861Z,25.20
2022-10-12T19:53:20.867Z,26.00
2022-10-12T19:58:22.924Z,26.20
2022-10-12T20:03:25.008Z,26.00
2022-10-12T20:13:30.216Z,26.30
2022-10-12T20:18:33.629Z,26.30
2022-10-12T20:23:37.689Z,26.30
2022-10-12T20:28:39.968Z,26.80
2022-10-12T20:33:42.097Z,27.40
2022-10-12T20:38:44.267Z,27.00
2022-10-12T20:43:46.608Z,27.10
2022-10-12T20:48:48.753Z,26.60
2022-10-12T20:53:52.278Z,27.20
2022-10-12T20:58:57.596Z,26.80
2022-10-12T21:03:59.630Z,26.70
2022-10-12T21:09:01.763Z,27.50
2022-10-12T21:14:03.896Z,27.30
2022-10-12T21:19:06.086Z,27.90
2022-10-12T21:24:10.330Z,28.00
2022-10-12T21:34:15.135Z,27.70
2022-10-12T21:39:17.631Z,27.70
2022-10-12T21:44:19.799Z,27.70
2022-10-12T21:49:21.938Z,27.90
2022-10-12T21:54:23.919Z,27.70
2022-10-12T21:59:25.903Z,27.70
2022-10-12T22:04:27.908Z,27.50
2022-10-12T22:09:30.058Z,27.50
2022-10-12T22:14:32.104Z,28.00
2022-10-12T22:19:37.018Z,27.50
2022-10-12T22:24:39.115Z,27.60
2022-10-12T22:29:41.115Z,27.50
2022-10-12T22:34:43.169Z,27.70
2022-10-12T22:39:45.207Z,28.20
2022-10-12T22:44:47.225Z,27.60
2022-10-12T22:49:49.216Z,27.60
2022-10-12T22:54:51.263Z,27.80
2022-10-12T22:59:53.833Z,27.70
2022-10-12T23:04:55.838Z,27.80
2022-10-12T23:09:57.814Z,28.40
2022-10-12T23:14:59.900Z,27.70
2022-10-12T23:20:01.991Z,28.20
2022-10-12T23:25:04.268Z,28.60
2022-10-12T23:30:07.240Z,28.70
2022-10-12T23:35:09.264Z,28.90
2022-10-12T23:40:11.981Z,29.40
2022-10-12T23:45:13.982Z,29.50
2022-10-12T23:50:18.566Z,29.00
2022-10-12T23:55:20.599Z,29.60
